メインページ
METAR-TAF:

METAR-TAF

空港 :

トリポリ, リビア

Mitiga International Airport

緯度: 32-54N, 経度: 13-17E, 海抜: 11m

現時点の気象観測

当レポートは1時間4分前の06:50(UTC)に作成
南西の風 6kt
気温 14°C
湿度 77%
気圧 1022 hPa
視程: 7000m
高度2000ftの千切れ雲あり

METAR: HLLM 200650Z 22006KT 7000 BKN020 14/10 Q1022

時間: 09:54 (07:54 UTC)

予報

当レポートは2時間54分前の05:00(UTC)に作成
予報は20日の 06時(UTC)から 21日の 06時(UTC)まで有効
変向風 2kt
視程10km以上
高度3000ftの雲はほとんどない
高度8000ftの雲は散在している
20日の 10時(UTC)から 20日の 12時(UTC)まで徐々に
西/南西の風 10kt
視程: 8000m
21日の 03時(UTC)から 21日の 05時(UTC)まで徐々に
変向風 2kt
視程: 7000m
高度2500ftの雲はほとんどない
高度8000ftの雲は散在している

TAF: HLLM 200500Z 2006/2106 VRB02KT 9999 FEW030 SCT080 BECMG 2010/2012 24010KT 8000 NSC BECMG 2103/2105 VRB02KT 7000 FEW025 SCT080

4,000以上の空港の気象観測と天気予報(METAR報とTAF報)

利用可能な観測所は地図上に黄色い丸と赤い丸で示す。

丸の上にカーソルを重ねると観測所名を参照できる。

次にクリックすると気象観測と天気予報を参照できる。

マップの切り替え:黒色「×」印の緑ボタンをクリックして拡大、「-」印の緑ボタンをクリックして縮小、緑色の三角印をクリックして隣りの地図に切り替え


METAR-TAF: